Time,TemperatureF,DewpointF,PressureIn,WindDirection,WindDirectionDegrees,WindSpeedMPH,WindSpeedGustMPH,Humidity,HourlyPrecipIn,Conditions,Clouds,dailyrainin,SoftwareType,DateUTC
2013-04-07 00:10:00,54.7,17.3,30.07,SSE,158,5.4,6.5,23,0.00,,,0.00,WUHU216HW,2013-04-07 04:10:00,
2013-04-07 00:25:00,54.7,17.3,30.07,SSE,158,3.6,7.2,23,0.00,,,0.00,WUHU216HW,2013-04-07 04:25:00,
2013-04-07 00:40:00,54.7,17.3,30.07,SSW,203,6.3,7.4,23,0.00,,,0.00,WUHU216HW,2013-04-07 04:40:00,
2013-04-07 00:55:00,54.7,16.4,30.06,East,90,4.0,7.2,22,0.00,,,0.00,WUHU216HW,2013-04-07 04:55:00,
2013-04-07 01:11:00,54.5,17.1,30.05,SSW,203,4.9,9.4,23,0.00,,,0.00,WUHU216HW,2013-04-07 05:11:00,
2013-04-07 01:26:00,54.4,17.0,30.04,SSE,158,4.9,6.9,23,0.00,,,0.00,WUHU216HW,2013-04-07 05:26:00,
2013-04-07 01:41:00,54.4,17.0,30.03,South,180,4.3,6.5,23,0.00,,,0.00,WUHU216HW,2013-04-07 05:41:00,
2013-04-07 01:56:00,54.2,16.8,30.03,SE,135,4.5,6.3,23,0.00,,,0.00,WUHU216HW,2013-04-07 05:56:00,
2013-04-07 02:11:00,54.2,16.8,30.02,SE,135,3.8,6.5,23,0.00,,,0.00,WUHU216HW,2013-04-07 06:11:00,
2013-04-07 02:26:00,54.2,16.8,30.01,SE,135,4.0,6.0,23,0.00,,,0.00,WUHU216HW,2013-04-07 06:26:00,
2013-04-07 02:41:00,54.2,17.8,30.01,SE,135,4.0,6.3,24,0.00,,,0.00,WUHU216HW,2013-04-07 06:41:00,
2013-04-07 02:56:00,54.5,18.1,30.00,SSE,158,4.3,5.6,24,0.00,,,0.00,WUHU216HW,2013-04-07 06:56:00,
2013-04-07 03:11:00,55.8,20.1,30.00,East,90,5.4,6.3,25,0.00,,,0.00,WUHU216HW,2013-04-07 07:11:00,
2013-04-07 03:26:00,57.4,21.5,29.99,ESE,113,2.5,8.9,25,0.00,,,0.00,WUHU216HW,2013-04-07 07:26:00,
2013-04-07 03:41:00,58.1,24.0,29.99,SSW,203,3.6,8.7,27,0.00,,,0.00,WUHU216HW,2013-04-07 07:41:00,
2013-04-07 03:56:00,59.4,25.1,29.98,ESE,113,4.3,12.1,27,0.00,,,0.00,WUHU216HW,2013-04-07 07:56:00,
2013-04-07 04:11:00,59.6,26.2,29.97,SSW,203,6.9,13.6,28,0.00,,,0.00,WUHU216HW,2013-04-07 08:11:00,
2013-04-07 04:26:00,59.6,27.2,29.96,South,180,1.1,12.3,29,0.00,,,0.00,WUHU216HW,2013-04-07 08:26:00,
2013-04-07 04:41:00,59.8,28.3,29.96,WSW,248,9.6,9.6,30,0.00,,,0.00,WUHU216HW,2013-04-07 08:41:00,
2013-04-07 04:57:00,59.8,29.0,29.95,ESE,113,3.1,7.4,31,0.00,,,0.00,WUHU216HW,2013-04-07 08:57:00,
2013-04-07 05:12:00,59.8,29.7,29.95,SSE,158,6.7,9.4,32,0.00,,,0.00,WUHU216HW,2013-04-07 09:12:00,
2013-04-07 05:27:00,59.8,30.4,29.95,South,180,2.7,10.7,33,0.00,,,0.00,WUHU216HW,2013-04-07 09:27:00,
2013-04-07 05:42:00,59.6,31.0,29.94,SW,225,9.8,9.8,34,0.00,,,0.00,WUHU216HW,2013-04-07 09:42:00,
2013-04-07 05:57:00,59.6,32.4,29.94,SSE,158,3.1,6.9,36,0.00,,,0.00,WUHU216HW,2013-04-07 09:57:00,
2013-04-07 06:12:00,59.4,32.2,29.94,SE,135,3.6,8.7,36,0.00,,,0.00,WUHU216HW,2013-04-07 10:12:00,
2013-04-07 06:27:00,59.6,33.1,29.94,SW,225,3.8,8.9,37,0.00,,,0.00,WUHU216HW,2013-04-07 10:27:00,
2013-04-07 06:42:00,59.6,33.9,29.94,WSW,248,6.3,7.8,38,0.00,,,0.00,WUHU216HW,2013-04-07 10:42:00,
2013-04-07 06:57:00,59.4,34.4,29.94,SE,135,4.5,11.0,39,0.00,,,0.00,WUHU216HW,2013-04-07 10:57:00,
2013-04-07 07:12:00,59.2,34.2,29.94,SSW,203,3.1,6.3,39,0.00,,,0.00,WUHU216HW,2013-04-07 11:12:00,
2013-04-07 07:27:00,59.0,34.7,29.94,SE,135,6.0,6.0,40,0.00,,,0.00,WUHU216HW,2013-04-07 11:27:00,
2013-04-07 07:42:00,59.0,35.3,29.94,SSW,203,1.8,9.8,41,0.00,,,0.00,WUHU216HW,2013-04-07 11:42:00,
2013-04-07 07:58:00,59.0,35.3,29.95,SE,135,6.3,6.9,41,0.00,,,0.00,WUHU216HW,2013-04-07 11:58:00,
2013-04-07 08:13:00,59.2,35.5,29.96,SE,135,2.5,5.4,41,0.00,,,0.00,WUHU216HW,2013-04-07 12:13:00,
2013-04-07 08:28:00,59.8,36.5,29.96,SSE,158,4.5,5.4,42,0.00,,,0.00,WUHU216HW,2013-04-07 12:28:00,
2013-04-07 08:43:00,60.1,37.4,29.95,South,180,2.5,7.6,43,0.00,,,0.00,WUHU216HW,2013-04-07 12:43:00,
2013-04-07 08:58:00,61.0,38.8,29.95,South,180,1.1,6.5,44,0.00,,,0.00,WUHU216HW,2013-04-07 12:58:00,
2013-04-07 09:13:00,62.3,41.1,29.95,ENE,68,11.4,11.6,46,0.00,,,0.00,WUHU216HW,2013-04-07 13:13:00,
2013-04-07 09:28:00,63.7,42.4,29.95,WSW,248,3.6,6.7,46,0.00,,,0.00,WUHU216HW,2013-04-07 13:28:00,
2013-04-07 09:43:00,64.3,42.3,29.95,WSW,248,3.6,6.3,45,0.00,,,0.00,WUHU216HW,2013-04-07 13:43:00,
2013-04-07 09:58:00,64.8,43.4,29.95,WSW,248,1.8,9.6,46,0.00,,,0.00,WUHU216HW,2013-04-07 13:58:00,
2013-04-07 10:13:00,65.2,43.2,29.96,South,180,5.1,11.4,45,0.00,,,0.00,WUHU216HW,2013-04-07 14:13:00,
2013-04-07 10:28:00,66.1,43.5,29.96,West,270,2.2,7.8,44,0.00,,,0.00,WUHU216HW,2013-04-07 14:28:00,
2013-04-07 10:44:00,66.1,42.9,29.97,SSW,203,5.4,10.5,43,0.00,,,0.00,WUHU216HW,2013-04-07 14:44:00,
2013-04-07 10:59:00,65.7,43.1,29.97,NNW,338,4.3,9.2,44,0.00,,,0.00,WUHU216HW,2013-04-07 14:59:00,
2013-04-07 11:14:00,67.1,43.2,29.98,SSW,203,3.4,5.4,42,0.00,,,0.00,WUHU216HW,2013-04-07 15:14:00,
2013-04-07 11:29:00,67.7,43.1,29.98,WSW,248,3.6,6.3,41,0.00,,,0.00,WUHU216HW,2013-04-07 15:29:00,
2013-04-07 11:44:00,68.4,44.4,29.99,SE,135,4.0,6.7,42,0.00,,,0.00,WUHU216HW,2013-04-07 15:44:00,
2013-04-07 11:59:00,68.8,44.1,29.99,SE,135,4.7,5.6,41,0.00,,,0.00,WUHU216HW,2013-04-07 15:59:00,
2013-04-07 12:14:00,68.9,44.3,29.99,South,180,3.4,5.4,41,0.00,,,0.00,WUHU216HW,2013-04-07 16:14:00,
2013-04-07 12:29:00,69.5,43.4,29.99,South,180,6.9,7.6,39,0.00,,,0.00,WUHU216HW,2013-04-07 16:29:00,
2013-04-07 12:44:00,69.7,44.3,29.99,South,180,3.4,9.4,40,0.00,,,0.00,WUHU216HW,2013-04-07 16:44:00,
2013-04-07 13:00:00,69.8,43.8,30.00,SW,225,4.0,8.7,39,0.00,,,0.00,WUHU216HW,2013-04-07 17:00:00,
2013-04-07 13:15:00,68.2,44.8,30.01,NW,315,2.7,6.0,43,0.00,,,0.00,WUHU216HW,2013-04-07 17:15:00,
2013-04-07 13:30:00,65.0,45.4,30.02,North,0,4.0,6.9,49,0.00,,,0.00,WUHU216HW,2013-04-07 17:30:00,
2013-04-07 13:45:00,63.7,45.2,30.02,NE,45,4.3,8.5,51,0.00,,,0.00,WUHU216HW,2013-04-07 17:45:00,
2013-04-07 14:00:00,63.9,44.9,30.03,WNW,293,4.7,9.2,50,0.00,,,0.00,WUHU216HW,2013-04-07 18:00:00,
2013-04-07 14:16:00,63.0,44.6,30.04,NW,315,3.6,7.6,51,0.00,,,0.00,WUHU216HW,2013-04-07 18:16:00,
2013-04-07 14:31:00,61.6,44.2,30.05,NNW,338,4.3,8.1,53,0.00,,,0.00,WUHU216HW,2013-04-07 18:31:00,
2013-04-07 14:46:00,60.5,44.2,30.06,North,0,3.4,7.6,55,0.00,,,0.00,WUHU216HW,2013-04-07 18:46:00,
2013-04-07 15:01:00,59.6,44.3,30.07,WSW,248,3.4,4.9,57,0.00,,,0.00,WUHU216HW,2013-04-07 19:01:00,
2013-04-07 15:16:00,59.6,43.8,30.07,WNW,293,2.5,6.7,56,0.00,,,0.00,WUHU216HW,2013-04-07 19:16:00,
2013-04-07 15:31:00,59.8,43.6,30.08,WSW,248,2.9,7.6,55,0.00,,,0.00,WUHU216HW,2013-04-07 19:31:00,
2013-04-07 15:46:00,59.0,43.3,30.09,NW,315,1.1,7.6,56,0.00,,,0.00,WUHU216HW,2013-04-07 19:46:00,
2013-04-07 16:01:00,58.0,41.9,30.09,SW,225,1.6,6.0,55,0.00,,,0.00,WUHU216HW,2013-04-07 20:01:00,
2013-04-07 16:17:00,58.0,42.3,30.10,SW,225,5.6,6.5,56,0.00,,,0.00,WUHU216HW,2013-04-07 20:17:00,
2013-04-07 16:32:00,58.5,41.9,30.10,West,270,4.9,5.4,54,0.00,,,0.00,WUHU216HW,2013-04-07 20:32:00,
2013-04-07 16:47:00,58.7,41.6,30.11,NNW,338,3.8,8.3,53,0.00,,,0.00,WUHU216HW,2013-04-07 20:47:00,
2013-04-07 17:02:00,59.0,42.0,30.12,NNW,338,3.4,6.9,53,0.00,,,0.00,WUHU216HW,2013-04-07 21:02:00,
2013-04-07 17:17:00,58.0,41.0,30.12,WNW,293,6.3,6.3,53,0.00,,,0.00,WUHU216HW,2013-04-07 21:17:00,
2013-04-07 17:32:00,58.0,40.5,30.12,NW,315,2.0,7.6,52,0.00,,,0.00,WUHU216HW,2013-04-07 21:32:00,
2013-04-07 17:47:00,57.6,40.6,30.13,WNW,293,2.7,9.4,53,0.00,,,0.00,WUHU216HW,2013-04-07 21:47:00,
2013-04-07 18:02:00,56.7,40.2,30.14,SSE,158,1.3,4.0,54,0.00,,,0.00,WUHU216HW,2013-04-07 22:02:00,
2013-04-07 18:17:00,56.9,40.0,30.15,West,270,1.8,5.8,53,0.00,,,0.00,WUHU216HW,2013-04-07 22:17:00,
2013-04-07 18:32:00,57.2,40.3,30.15,West,270,1.8,3.4,53,0.00,,,0.00,WUHU216HW,2013-04-07 22:32:00,
2013-04-07 18:48:00,56.9,40.0,30.15,NNW,338,1.6,3.6,53,0.00,,,0.00,WUHU216HW,2013-04-07 22:48:00,
2013-04-07 19:03:00,55.8,38.3,30.15,NNW,338,1.6,3.8,52,0.00,,,0.00,WUHU216HW,2013-04-07 23:03:00,
2013-04-07 19:18:00,55.1,38.2,30.16,North,0,1.1,4.0,53,0.00,,,0.00,WUHU216HW,2013-04-07 23:18:00,
2013-04-07 19:33:00,53.6,37.8,30.17,NW,315,0.7,4.7,55,0.00,,,0.00,WUHU216HW,2013-04-07 23:33:00,
2013-04-07 19:48:00,52.2,37.8,30.18,NNW,338,1.1,4.3,58,0.00,,,0.00,WUHU216HW,2013-04-07 23:48:00,
2013-04-07 20:03:00,50.8,37.4,30.18,NNW,338,2.0,6.0,60,0.00,,,0.00,WUHU216HW,2013-04-08 00:03:00,
2013-04-07 20:18:00,49.9,37.4,30.18,NNW,338,1.1,3.8,62,0.00,,,0.00,WUHU216HW,2013-04-08 00:18:00,
2013-04-07 20:33:00,49.3,36.8,30.18,North,0,1.8,4.7,62,0.00,,,0.00,WUHU216HW,2013-04-08 00:33:00,
2013-04-07 20:48:00,49.0,36.1,30.19,NNW,338,0.4,2.9,61,0.00,,,0.00,WUHU216HW,2013-04-08 00:48:00,
2013-04-07 21:03:00,48.8,36.0,30.20,North,0,1.1,5.1,61,0.00,,,0.00,WUHU216HW,2013-04-08 01:03:00,
2013-04-07 21:18:00,48.6,36.2,30.20,NNW,338,1.1,2.7,62,0.00,,,0.00,WUHU216HW,2013-04-08 01:18:00,
2013-04-07 21:34:00,48.6,35.8,30.21,North,0,2.5,3.6,61,0.00,,,0.00,WUHU216HW,2013-04-08 01:34:00,
2013-04-07 21:49:00,48.1,35.3,30.22,North,0,1.1,2.2,61,0.00,,,0.00,WUHU216HW,2013-04-08 01:49:00,
2013-04-07 22:04:00,47.9,35.5,30.22,North,0,1.6,3.4,62,0.00,,,0.00,WUHU216HW,2013-04-08 02:04:00,
2013-04-07 22:19:00,47.5,35.2,30.23,NNW,338,0.4,2.2,62,0.00,,,0.00,WUHU216HW,2013-04-08 02:19:00,
2013-04-07 22:34:00,47.2,34.8,30.23,North,0,0.0,1.1,62,0.00,,,0.00,WUHU216HW,2013-04-08 02:34:00,
2013-04-07 22:49:00,46.8,34.8,30.23,North,0,0.4,0.7,63,0.00,,,0.00,WUHU216HW,2013-04-08 02:49:00,
2013-04-07 23:04:00,46.8,35.2,30.23,West,270,0.4,0.9,64,0.00,,,0.00,WUHU216HW,2013-04-08 03:04:00,
2013-04-07 23:20:00,46.8,35.7,30.22,NE,45,1.3,2.5,65,0.00,,,0.00,WUHU216HW,2013-04-08 03:20:00,
2013-04-07 23:35:00,47.0,35.8,30.22,NNW,338,1.8,2.9,65,0.00,,,0.00,WUHU216HW,2013-04-08 03:35:00,
2013-04-07 23:50:00,46.8,36.0,30.22,NNW,338,0.0,2.0,66,0.00,,,0.00,WUHU216HW,2013-04-08 03:50:00,